createdAt,value
2023-03-05T00:01:16.390Z,101691.78
2023-03-05T00:03:43.159Z,101696.25
2023-03-05T00:06:09.900Z,101702.53
2023-03-05T00:08:36.948Z,101696.13
2023-03-05T00:11:06.544Z,101693.34
2023-03-05T00:13:33.838Z,101692.34
2023-03-05T00:16:03.722Z,101686.88
2023-03-05T00:18:30.390Z,101678.91
2023-03-05T00:20:57.058Z,101682.47
2023-03-05T00:23:23.814Z,101686.66
2023-03-05T00:25:50.507Z,101683.81
2023-03-05T00:28:17.177Z,101676.84
2023-03-05T00:30:43.886Z,101673.78
2023-03-05T00:33:12.538Z,101677.13
2023-03-05T00:35:46.845Z,101672.06
2023-03-05T00:38:13.996Z,101674.22
2023-03-05T00:40:41.674Z,101668.00
2023-03-05T00:43:09.056Z,101669.19
2023-03-05T00:45:36.047Z,101668.06
2023-03-05T00:48:03.778Z,101661.94
2023-03-05T00:50:30.417Z,101654.66
2023-03-05T00:52:57.151Z,101655.34
2023-03-05T00:55:23.775Z,101651.72
2023-03-05T00:57:50.449Z,101645.88
2023-03-05T01:00:17.658Z,101639.75
2023-03-05T01:02:44.383Z,101650.94
2023-03-05T01:05:15.423Z,101649.88
2023-03-05T01:07:42.144Z,101642.94
2023-03-05T01:10:09.724Z,101641.38
2023-03-05T01:12:36.589Z,101640.59
2023-03-05T01:15:04.278Z,101636.09
2023-03-05T01:17:30.891Z,101634.81
2023-03-05T01:19:57.619Z,101631.28
2023-03-05T01:22:24.290Z,101630.34
2023-03-05T01:24:50.922Z,101625.63
2023-03-05T01:27:17.738Z,101630.66
2023-03-05T01:29:44.322Z,101624.53
2023-03-05T01:32:11.490Z,101625.97
2023-03-05T01:34:38.352Z,101630.59
2023-03-05T01:37:05.121Z,101612.09
2023-03-05T01:39:31.733Z,101615.47
2023-03-05T01:41:58.393Z,101608.09
2023-03-05T01:44:29.938Z,101605.22
2023-03-05T01:46:57.238Z,101600.66
2023-03-05T01:49:38.877Z,101601.59
2023-03-05T01:52:14.113Z,101594.59
2023-03-05T01:55:04.411Z,101589.84
2023-03-05T01:58:03.281Z,101594.06
2023-03-05T02:00:33.838Z,101594.13
2023-03-05T02:03:04.302Z,101580.06
2023-03-05T02:05:33.375Z,101581.91
2023-03-05T02:08:01.679Z,101585.47
2023-03-05T02:10:35.250Z,101579.31
2023-03-05T02:13:05.789Z,101573.00
2023-03-05T02:15:33.067Z,101570.28
2023-03-05T02:18:01.429Z,101576.31
2023-03-05T02:20:30.925Z,101569.13
2023-03-05T02:22:57.940Z,101562.94
2023-03-05T02:25:29.256Z,101558.34
2023-03-05T02:28:00.550Z,101544.25
2023-03-05T02:30:27.192Z,101546.16
2023-03-05T02:32:53.920Z,101546.38
2023-03-05T02:35:21.158Z,101550.88
2023-03-05T02:37:49.338Z,101543.09
2023-03-05T02:40:16.542Z,101541.19
2023-03-05T02:42:43.486Z,101550.22
2023-03-05T02:45:11.064Z,101532.13
2023-03-05T02:47:37.847Z,101539.97
2023-03-05T02:50:06.081Z,101535.44
2023-03-05T02:52:33.036Z,101540.28
2023-03-05T02:54:59.729Z,101531.44
2023-03-05T02:57:26.442Z,101535.03
2023-03-05T02:59:53.223Z,101523.53
2023-03-05T03:02:19.995Z,101528.03
2023-03-05T03:04:46.748Z,101512.22
2023-03-05T03:07:14.260Z,101513.03
2023-03-05T03:09:42.967Z,101510.91
2023-03-05T03:12:10.551Z,101512.00
2023-03-05T03:14:39.587Z,101499.34
2023-03-05T03:17:07.759Z,101504.66
2023-03-05T03:19:35.905Z,101502.03
2023-03-05T03:22:02.772Z,101494.06
2023-03-05T03:24:30.853Z,101502.63
2023-03-05T03:26:57.603Z,101505.09
2023-03-05T03:29:24.709Z,101498.75
2023-03-05T03:31:51.445Z,101497.16
2023-03-05T03:34:18.144Z,101487.44
2023-03-05T03:36:45.705Z,101482.19
2023-03-05T03:39:13.533Z,101473.31
2023-03-05T03:41:45.155Z,101480.13
2023-03-05T03:44:12.628Z,101471.44
2023-03-05T03:46:40.557Z,101475.59
2023-03-05T03:49:11.063Z,101475.59
2023-03-05T03:51:37.726Z,101467.59
2023-03-05T03:54:04.654Z,101461.81
2023-03-05T03:56:31.277Z,101465.72
2023-03-05T03:58:58.002Z,101464.00
2023-03-05T04:01:24.662Z,101458.84
2023-03-05T04:03:51.606Z,101464.28
2023-03-05T04:06:18.367Z,101451.97
2023-03-05T04:08:45.000Z,101449.41
2023-03-05T04:11:11.796Z,101450.09
2023-03-05T04:13:38.445Z,101445.53
2023-03-05T04:16:05.724Z,101445.78
2023-03-05T04:18:32.704Z,101438.06
2023-03-05T04:20:59.470Z,101434.78
2023-03-05T04:23:26.077Z,101428.28
2023-03-05T04:25:52.672Z,101422.97
2023-03-05T04:28:19.379Z,101424.91
2023-03-05T04:30:46.182Z,101423.16
2023-03-05T04:33:12.847Z,101423.91
2023-03-05T04:35:39.633Z,101414.22
2023-03-05T04:38:06.298Z,101416.09
2023-03-05T04:40:33.179Z,101405.31
2023-03-05T04:42:59.794Z,101407.91
2023-03-05T04:45:26.637Z,101408.78
2023-03-05T04:47:53.409Z,101412.66
2023-03-05T04:50:20.120Z,101403.00
2023-03-05T04:52:46.925Z,101391.50
2023-03-05T04:55:15.370Z,101393.88
2023-03-05T04:57:42.086Z,101399.28
2023-03-05T05:00:15.131Z,101401.13
2023-03-05T05:02:43.273Z,101408.78
2023-03-05T05:05:12.574Z,101398.56
2023-03-05T05:07:39.250Z,101400.31
2023-03-05T05:10:07.885Z,101401.13
2023-03-05T05:12:35.183Z,101404.53
2023-03-05T05:15:02.422Z,101394.03
2023-03-05T05:17:33.106Z,101391.44
2023-03-05T05:20:06.707Z,101393.09
2023-03-05T05:22:34.284Z,101388.06
2023-03-05T05:25:01.445Z,101381.97
2023-03-05T05:27:28.459Z,101379.13
2023-03-05T05:29:55.052Z,101381.09
2023-03-05T05:32:22.792Z,101378.88
2023-03-05T05:34:50.006Z,101373.66
2023-03-05T05:37:16.749Z,101376.97
2023-03-05T05:39:50.112Z,101383.16
2023-03-05T05:42:22.543Z,101379.00
2023-03-05T05:44:49.532Z,101380.66
2023-03-05T05:47:17.297Z,101386.78
2023-03-05T05:49:44.093Z,101383.25
2023-03-05T05:52:11.073Z,101382.25
2023-03-05T05:54:38.332Z,101385.47
2023-03-05T05:57:05.077Z,101367.22
2023-03-05T05:59:31.806Z,101369.34
2023-03-05T06:01:58.615Z,101373.03
2023-03-05T06:04:25.409Z,101373.81
2023-03-05T06:06:52.103Z,101370.16
2023-03-05T06:09:19.035Z,101371.16
2023-03-05T06:11:45.745Z,101371.69
2023-03-05T06:14:12.957Z,101362.97
2023-03-05T06:16:39.929Z,101373.53
2023-03-05T06:19:06.674Z,101368.28
2023-03-05T06:21:33.559Z,101363.81
2023-03-05T06:24:00.562Z,101365.09
2023-03-05T06:26:33.556Z,101369.53
2023-03-05T06:29:00.271Z,101363.53
2023-03-05T06:31:28.426Z,101359.81
2023-03-05T06:33:56.990Z,101366.72
2023-03-05T06:36:24.692Z,101357.28
2023-03-05T06:38:53.407Z,101358.88
2023-03-05T06:41:25.987Z,101353.66
2023-03-05T06:43:53.537Z,101365.72
2023-03-05T06:46:26.057Z,101361.53
2023-03-05T06:48:55.416Z,101362.44
2023-03-05T06:51:24.895Z,101359.53
2023-03-05T06:53:52.630Z,101353.56
2023-03-05T06:56:20.549Z,101355.50
2023-03-05T06:58:49.124Z,101349.31
2023-03-05T07:01:16.471Z,101342.41
2023-03-05T07:03:52.667Z,101354.41
2023-03-05T07:06:20.123Z,101353.53
2023-03-05T07:08:47.304Z,101347.97
2023-03-05T07:11:19.094Z,101352.38
2023-03-05T07:13:47.983Z,101353.56
2023-03-05T07:16:17.464Z,101343.19
2023-03-05T07:18:44.750Z,101347.63
2023-03-05T07:21:17.996Z,101347.41
2023-03-05T07:23:44.919Z,101338.44
2023-03-05T07:26:12.196Z,101336.13
2023-03-05T07:28:38.827Z,101342.09
2023-03-05T07:31:08.173Z,101338.56
2023-03-05T07:33:36.615Z,101337.59
2023-03-05T07:36:04.971Z,101342.78
2023-03-05T07:38:32.191Z,101340.78
2023-03-05T07:41:05.736Z,101338.34
2023-03-05T07:43:32.339Z,101334.78
2023-03-05T07:45:59.047Z,101343.56
2023-03-05T07:48:25.907Z,101332.66
2023-03-05T07:51:01.933Z,101331.81
2023-03-05T07:53:28.533Z,101333.47
2023-03-05T07:55:55.146Z,101333.16
2023-03-05T07:58:21.830Z,101331.19
2023-03-05T08:00:49.054Z,101326.91
2023-03-05T08:03:15.716Z,101334.06
2023-03-05T08:05:42.766Z,101326.22
2023-03-05T08:08:09.839Z,101332.03
2023-03-05T08:10:37.550Z,101325.53
2023-03-05T08:13:04.812Z,101330.09
2023-03-05T08:15:34.351Z,101330.09
2023-03-05T08:18:01.173Z,101325.03
2023-03-05T08:20:29.861Z,101323.25
2023-03-05T08:22:56.563Z,101317.81
2023-03-05T08:25:23.259Z,101320.28
2023-03-05T08:27:50.014Z,101312.53
2023-03-05T08:30:21.840Z,101314.22
2023-03-05T08:32:49.739Z,101309.97
2023-03-05T08:35:16.528Z,101310.75
2023-03-05T08:37:43.358Z,101303.78
2023-03-05T08:40:11.171Z,101310.50
2023-03-05T08:42:37.817Z,101307.19
2023-03-05T08:45:04.953Z,101295.25
2023-03-05T08:47:33.049Z,101295.94
2023-03-05T08:49:59.778Z,101296.03
2023-03-05T08:52:27.510Z,101289.63
2023-03-05T08:54:56.813Z,101293.41
2023-03-05T08:57:29.687Z,101298.84
2023-03-05T08:59:56.578Z,101290.69
2023-03-05T09:02:23.329Z,101285.28
2023-03-05T09:04:50.259Z,101291.22
2023-03-05T09:07:17.003Z,101290.56
2023-03-05T09:09:43.787Z,101295.72
2023-03-05T09:12:12.361Z,101287.56
2023-03-05T09:14:40.434Z,101283.28
2023-03-05T09:17:07.265Z,101282.31
2023-03-05T09:19:34.197Z,101281.91
2023-03-05T09:22:00.952Z,101279.25
2023-03-05T09:24:33.624Z,101283.34
2023-03-05T09:27:03.214Z,101268.91
2023-03-05T09:29:31.390Z,101263.44
2023-03-05T09:31:58.428Z,101268.22
2023-03-05T09:34:25.270Z,101277.66
2023-03-05T09:36:52.039Z,101261.13
2023-03-05T09:39:18.801Z,101260.97
2023-03-05T09:42:42.119Z,101257.50
2023-03-05T09:45:34.970Z,101250.25
2023-03-05T09:48:23.968Z,101260.28
2023-03-05T09:51:02.845Z,101258.44
2023-03-05T09:53:39.703Z,101257.66
2023-03-05T09:56:14.739Z,101249.13
2023-03-05T09:58:47.520Z,101246.75
2023-03-05T10:01:19.151Z,101238.84
2023-03-05T10:04:09.816Z,101245.63
2023-03-05T10:06:42.268Z,101241.19
2023-03-05T10:09:11.844Z,101232.94
2023-03-05T10:11:44.401Z,101235.25
2023-03-05T10:14:19.270Z,101227.47
2023-03-05T10:17:01.725Z,101227.88
2023-03-05T10:19:47.219Z,101223.31
2023-03-05T10:22:13.930Z,101222.47
2023-03-05T10:24:54.233Z,101208.22
2023-03-05T10:27:30.846Z,101212.56
2023-03-05T10:30:01.844Z,101209.75
2023-03-05T10:32:31.547Z,101207.19
2023-03-05T10:35:11.801Z,101196.47
2023-03-05T10:38:03.769Z,101199.69
2023-03-05T10:40:55.751Z,101205.63
2023-03-05T10:43:41.620Z,101202.28
2023-03-05T10:46:15.015Z,101206.88
2023-03-05T10:48:58.733Z,101200.03
2023-03-05T10:51:38.259Z,101196.19
2023-03-05T10:54:20.205Z,101197.59
2023-03-05T10:56:46.856Z,101185.09
2023-03-05T10:59:13.615Z,101192.41
2023-03-05T11:01:40.413Z,101190.56
2023-03-05T11:04:10.823Z,101177.28
2023-03-05T11:06:42.392Z,101178.84
2023-03-05T11:09:34.821Z,101175.84
2023-03-05T11:12:06.856Z,101174.69
2023-03-05T11:14:33.762Z,101169.50
2023-03-05T11:17:25.030Z,101168.00
2023-03-05T11:19:52.211Z,101162.84
2023-03-05T11:22:22.034Z,101157.66
2023-03-05T11:25:14.352Z,101149.19
2023-03-05T11:27:54.721Z,101146.28
2023-03-05T11:30:32.974Z,101137.25
2023-03-05T11:33:20.641Z,101141.25
2023-03-05T11:35:48.593Z,101143.31
2023-03-05T11:38:19.449Z,101139.41
2023-03-05T11:40:47.168Z,101136.97
2023-03-05T11:43:19.378Z,101130.69
2023-03-05T11:45:48.827Z,101133.66
2023-03-05T11:48:27.465Z,101131.97
2023-03-05T11:51:01.680Z,101131.03
2023-03-05T11:53:31.797Z,101125.06
2023-03-05T11:56:03.632Z,101109.09
2023-03-05T11:58:43.657Z,101113.97
2023-03-05T12:01:19.351Z,101113.63
2023-03-05T12:03:46.739Z,101107.91
2023-03-05T12:06:30.275Z,101097.81
2023-03-05T12:08:58.712Z,101097.44
2023-03-05T12:11:30.804Z,101093.91
2023-03-05T12:14:15.665Z,101090.69
2023-03-05T12:17:00.915Z,101094.16
2023-03-05T12:19:34.634Z,101088.16
2023-03-05T12:22:17.426Z,101084.06
2023-03-05T12:24:44.328Z,101082.31
2023-03-05T12:27:15.445Z,101072.78
2023-03-05T12:29:43.528Z,101072.69
2023-03-05T12:32:22.961Z,101070.13
2023-03-05T12:34:56.480Z,101067.59
2023-03-05T12:37:23.662Z,101059.41
2023-03-05T12:40:20.139Z,101048.88
2023-03-05T12:42:51.579Z,101043.78
2023-03-05T12:45:19.667Z,101037.75
2023-03-05T12:48:12.250Z,101032.88
2023-03-05T12:50:38.962Z,101029.50
2023-03-05T12:53:20.211Z,101028.97
2023-03-05T12:56:20.863Z,101021.38
2023-03-05T12:58:50.957Z,101020.75
2023-03-05T13:01:33.106Z,101022.06
2023-03-05T13:04:10.839Z,101018.97
2023-03-05T13:06:39.110Z,101013.47
2023-03-05T13:09:09.008Z,101005.56
2023-03-05T13:11:39.169Z,101007.97
2023-03-05T13:14:23.780Z,100998.06
2023-03-05T13:16:50.913Z,100996.25
2023-03-05T13:19:17.871Z,100990.47
2023-03-05T13:21:44.755Z,100990.25
2023-03-05T13:24:19.432Z,100987.31
2023-03-05T13:26:46.247Z,100985.47
2023-03-05T13:29:22.053Z,100984.22
2023-03-05T13:31:59.029Z,100979.03
2023-03-05T13:34:40.821Z,100974.69
2023-03-05T13:37:22.984Z,100971.59
2023-03-05T13:39:52.364Z,100962.06
2023-03-05T13:42:20.228Z,100967.50
2023-03-05T13:45:04.068Z,100956.34
2023-03-05T13:47:33.280Z,100961.31
2023-03-05T13:50:02.491Z,100956.88
2023-03-05T13:52:34.918Z,100962.06
2023-03-05T13:55:02.515Z,100953.53
2023-03-05T13:57:40.327Z,100947.72
2023-03-05T14:00:29.047Z,100953.41
2023-03-05T14:02:59.661Z,100948.06
2023-03-05T14:05:27.292Z,100940.22
2023-03-05T14:07:55.700Z,100940.53
2023-03-05T14:10:29.866Z,100939.47
2023-03-05T14:12:57.498Z,100938.47
2023-03-05T14:15:32.941Z,100928.81
2023-03-05T14:18:11.716Z,100929.75
2023-03-05T14:20:59.639Z,100927.91
2023-03-05T14:23:32.535Z,100924.09
2023-03-05T14:26:38.494Z,100914.38
2023-03-05T14:29:15.175Z,100916.56
2023-03-05T14:31:55.374Z,100910.63
2023-03-05T14:34:29.044Z,100906.88
2023-03-05T14:36:59.226Z,100904.19
2023-03-05T14:39:40.561Z,100898.16
2023-03-05T14:42:39.639Z,100889.81
2023-03-05T14:45:18.252Z,100880.81
2023-03-05T14:47:45.514Z,100878.53
2023-03-05T14:50:17.125Z,100871.78
2023-03-05T14:52:44.708Z,100865.03
2023-03-05T14:55:23.067Z,100863.66
2023-03-05T14:57:51.697Z,100860.97
2023-03-05T15:00:24.037Z,100855.28
2023-03-05T15:02:51.013Z,100843.66
2023-03-05T15:05:20.872Z,100843.47
2023-03-05T15:07:50.642Z,100841.69
2023-03-05T15:10:20.634Z,100845.91
2023-03-05T15:12:47.822Z,100836.84
2023-03-05T15:15:15.042Z,100845.16
2023-03-05T15:17:44.307Z,100833.78
2023-03-05T15:20:15.573Z,100838.53
2023-03-05T15:22:42.436Z,100837.31
2023-03-05T15:25:09.908Z,100827.75
2023-03-05T15:27:36.667Z,100824.97
2023-03-05T15:30:05.367Z,100820.63
2023-03-05T15:32:32.146Z,100821.44
2023-03-05T15:34:59.309Z,100816.50
2023-03-05T15:37:26.407Z,100812.00
2023-03-05T15:39:53.539Z,100803.34
2023-03-05T15:42:20.335Z,100806.59
2023-03-05T15:44:47.001Z,100798.16
2023-03-05T15:47:17.079Z,100802.16
2023-03-05T15:49:43.736Z,100797.91
2023-03-05T15:52:10.497Z,100790.31
2023-03-05T15:54:37.661Z,100789.16
2023-03-05T15:57:08.928Z,100781.75
2023-03-05T15:59:35.675Z,100781.31
2023-03-05T16:02:02.595Z,100772.59
2023-03-05T16:04:29.655Z,100766.88
2023-03-05T16:06:59.675Z,100764.72
2023-03-05T16:09:39.819Z,100764.66
2023-03-05T16:12:09.878Z,100761.44
2023-03-05T16:14:38.544Z,100757.06
2023-03-05T16:17:05.658Z,100755.34
2023-03-05T16:19:55.183Z,100751.84
2023-03-05T16:22:22.013Z,100747.84
2023-03-05T16:24:48.742Z,100745.06
2023-03-05T16:27:15.660Z,100739.88
2023-03-05T16:29:47.540Z,100742.53
2023-03-05T16:32:14.461Z,100733.75
2023-03-05T16:34:41.251Z,100743.38
2023-03-05T16:37:08.009Z,100734.88
2023-03-05T16:39:35.538Z,100729.28
2023-03-05T16:42:02.376Z,100727.09
2023-03-05T16:44:29.109Z,100729.94
2023-03-05T16:46:56.619Z,100729.22
2023-03-05T16:49:23.445Z,100732.88
2023-03-05T16:51:50.462Z,100726.78
2023-03-05T16:54:17.775Z,100727.75
2023-03-05T16:56:44.900Z,100724.53
2023-03-05T16:59:12.690Z,100726.19
2023-03-05T17:01:39.432Z,100721.63
2023-03-05T17:04:06.330Z,100721.41
2023-03-05T17:06:33.700Z,100709.25
2023-03-05T17:09:00.594Z,100718.94
2023-03-05T17:11:27.574Z,100711.34
2023-03-05T17:13:54.300Z,100717.34
2023-03-05T17:16:21.258Z,100706.66
2023-03-05T17:18:48.462Z,100700.75
2023-03-05T17:21:16.774Z,100706.22
2023-03-05T17:23:43.817Z,100703.25
2023-03-05T17:26:13.802Z,100710.38
2023-03-05T17:28:40.967Z,100702.59
2023-03-05T17:31:08.215Z,100708.63
2023-03-05T17:33:35.597Z,100708.88
2023-03-05T17:36:02.618Z,100705.69
2023-03-05T17:38:30.151Z,100700.97
2023-03-05T17:40:57.041Z,100700.72
2023-03-05T17:43:24.175Z,100706.84
2023-03-05T17:45:51.062Z,100709.88
2023-03-05T17:48:20.861Z,100706.50
2023-03-05T17:50:50.019Z,100703.56
2023-03-05T17:53:48.514Z,100705.19
2023-03-05T17:56:16.143Z,100702.28
2023-03-05T17:58:43.013Z,100705.59
2023-03-05T18:01:09.893Z,100707.31
2023-03-05T18:03:37.310Z,100699.25
2023-03-05T18:06:05.116Z,100703.63
2023-03-05T18:08:32.376Z,100709.53
2023-03-05T18:10:59.159Z,100698.03
2023-03-05T18:13:25.952Z,100692.09
2023-03-05T18:15:52.783Z,100696.72
2023-03-05T18:18:19.472Z,100693.03
2023-03-05T18:20:46.465Z,100695.44
2023-03-05T18:23:13.365Z,100692.97
2023-03-05T18:25:40.347Z,100693.38
2023-03-05T18:28:12.484Z,100692.53
2023-03-05T18:30:40.746Z,100683.84
2023-03-05T18:33:08.967Z,100682.94
2023-03-05T18:35:35.722Z,100683.06
2023-03-05T18:38:22.321Z,100675.91
2023-03-05T18:40:51.427Z,100682.25
2023-03-05T18:43:20.707Z,100680.38
2023-03-05T18:45:52.349Z,100679.16
2023-03-05T18:48:19.778Z,100674.19
2023-03-05T18:50:53.176Z,100667.41
2023-03-05T18:53:22.143Z,100673.53
2023-03-05T18:55:51.342Z,100667.41
2023-03-05T18:58:18.404Z,100661.41
2023-03-05T19:00:47.066Z,100664.47
2023-03-05T19:03:15.322Z,100660.00
2023-03-05T19:05:42.545Z,100655.75
2023-03-05T19:08:09.563Z,100663.25
2023-03-05T19:10:36.526Z,100662.69
2023-03-05T19:13:30.019Z,100659.38
2023-03-05T19:15:56.806Z,100668.34
2023-03-05T19:18:25.512Z,100659.53
2023-03-05T19:20:58.583Z,100660.69
2023-03-05T19:23:26.314Z,100653.88
2023-03-05T19:25:53.563Z,100651.94
2023-03-05T19:28:21.392Z,100648.31
2023-03-05T19:30:49.585Z,100654.50
2023-03-05T19:33:16.452Z,100650.16
2023-03-05T19:35:43.393Z,100639.31
2023-03-05T19:38:10.365Z,100637.66
2023-03-05T19:40:37.173Z,100627.84
2023-03-05T19:43:05.745Z,100631.97
2023-03-05T19:45:34.037Z,100628.16
2023-03-05T19:48:01.348Z,100627.13
2023-03-05T19:50:28.289Z,100620.75
2023-03-05T19:52:55.283Z,100620.91
2023-03-05T19:55:22.068Z,100619.25
2023-03-05T19:57:49.184Z,100614.69
2023-03-05T20:00:17.800Z,100610.78
2023-03-05T20:02:44.592Z,100612.41
2023-03-05T20:05:11.481Z,100618.69
2023-03-05T20:07:38.708Z,100605.16
2023-03-05T20:10:05.941Z,100608.78
2023-03-05T20:12:33.952Z,100605.28
2023-03-05T20:15:01.077Z,100606.81
2023-03-05T20:17:27.766Z,100602.72
2023-03-05T20:19:59.038Z,100604.34
2023-03-05T20:22:26.049Z,100596.31
2023-03-05T20:24:52.869Z,100599.06
2023-03-05T20:27:19.693Z,100598.03
2023-03-05T20:29:46.481Z,100597.34
2023-03-05T20:32:13.267Z,100593.72
2023-03-05T20:34:40.160Z,100593.00
2023-03-05T20:37:07.678Z,100589.47
2023-03-05T20:39:34.425Z,100592.00
2023-03-05T20:42:01.238Z,100588.53
2023-03-05T20:44:27.996Z,100584.31
2023-03-05T20:47:02.871Z,100578.81
2023-03-05T20:49:29.788Z,100582.50
2023-03-05T20:51:56.657Z,100580.22
2023-03-05T20:54:27.337Z,100576.81
2023-03-05T20:56:54.116Z,100580.22
2023-03-05T20:59:23.340Z,100575.81
2023-03-05T21:01:50.156Z,100581.09
2023-03-05T21:04:16.885Z,100572.53
2023-03-05T21:06:43.666Z,100565.88
2023-03-05T21:09:10.476Z,100565.72
2023-03-05T21:11:38.188Z,100563.19
2023-03-05T21:14:04.974Z,100565.25
2023-03-05T21:16:31.757Z,100565.06
2023-03-05T21:18:58.502Z,100552.72
2023-03-05T21:21:25.798Z,100553.88
2023-03-05T21:23:53.384Z,100546.75
2023-03-05T21:26:20.092Z,100535.94
2023-03-05T21:28:46.808Z,100539.94
2023-03-05T21:31:21.927Z,100540.84
2023-03-05T21:33:49.213Z,100539.00
2023-03-05T21:36:19.028Z,100544.06
2023-03-05T21:38:46.976Z,100539.06
2023-03-05T21:41:13.906Z,100540.63
2023-03-05T21:43:40.648Z,100533.66
2023-03-05T21:46:07.635Z,100530.44
2023-03-05T21:48:34.530Z,100529.03
2023-03-05T21:51:06.719Z,100528.06
2023-03-05T21:53:33.368Z,100523.25
2023-03-05T21:56:21.179Z,100526.44
2023-03-05T21:58:48.225Z,100515.31
2023-03-05T22:01:16.393Z,100509.94
2023-03-05T22:03:43.229Z,100504.69
2023-03-05T22:06:11.470Z,100499.06
2023-03-05T22:08:38.168Z,100496.75
2023-03-05T22:11:16.147Z,100500.28
2023-03-05T22:13:43.095Z,100495.09
2023-03-05T22:16:11.832Z,100484.81
2023-03-05T22:18:38.668Z,100472.59
2023-03-05T22:21:05.662Z,100478.28
2023-03-05T22:23:34.632Z,100472.16
2023-03-05T22:26:04.165Z,100474.97
2023-03-05T22:28:31.890Z,100465.00
2023-03-05T22:30:58.853Z,100458.88
2023-03-05T22:33:26.169Z,100468.38
2023-03-05T22:35:53.095Z,100461.66
2023-03-05T22:38:19.910Z,100458.66
2023-03-05T22:40:48.073Z,100448.28
2023-03-05T22:43:15.053Z,100450.00
2023-03-05T22:45:41.937Z,100445.69
2023-03-05T22:48:10.124Z,100450.00
2023-03-05T22:50:41.654Z,100444.66
2023-03-05T22:53:08.629Z,100447.28
2023-03-05T22:55:39.784Z,100446.31
2023-03-05T22:58:06.422Z,100444.06
2023-03-05T23:00:33.184Z,100434.94
2023-03-05T23:02:59.969Z,100426.03
2023-03-05T23:05:26.787Z,100430.03
2023-03-05T23:07:53.489Z,100432.09
2023-03-05T23:10:27.210Z,100429.88
2023-03-05T23:12:55.408Z,100425.34
2023-03-05T23:15:25.278Z,100435.34
2023-03-05T23:17:52.580Z,100427.50
2023-03-05T23:20:21.433Z,100427.31
2023-03-05T23:22:48.738Z,100421.16
2023-03-05T23:25:16.642Z,100419.84
2023-03-05T23:27:43.971Z,100422.31
2023-03-05T23:30:22.075Z,100418.28
2023-03-05T23:33:11.578Z,100418.81
2023-03-05T23:35:40.461Z,100416.38
2023-03-05T23:38:11.851Z,100409.31
2023-03-05T23:40:45.066Z,100406.50
2023-03-05T23:43:12.325Z,100411.19
2023-03-05T23:45:41.812Z,100405.00
2023-03-05T23:48:08.623Z,100400.66
2023-03-05T23:50:38.642Z,100406.91
2023-03-05T23:53:06.857Z,100408.47
2023-03-05T23:55:36.610Z,100405.44
2023-03-05T23:58:03.507Z,100393.94
